Time;durP1;ratioP1;P1;durP2;ratioP2;P2;SDS_P1;SDS_P2;PMS_P1;PMS_P2;Temp;Humidity;BMP_temperature;BMP_pressure;BME280_temperature;BME280_humidity;BME280_pressure;Samples;Min_cycle;Max_cycle;Signal;HPM_P1;HPM_P2
2021/11/04 00:00:26;;;;;;;12.40;9.90;;;7.20;99.90;;;;;;5030987;28;20052;-64
2021/11/04 00:02:53;;;;;;;9.60;8.57;;;7.20;99.90;;;;;;5031720;28;20029;-65
2021/11/04 00:05:19;;;;;;;13.23;8.02;;;7.20;99.90;;;;;;5031427;28;20029;-65
2021/11/04 00:07:50;;;;;;;9.77;8.63;;;7.30;99.90;;;;;;5032320;28;20033;-64
2021/11/04 00:10:16;;;;;;;9.63;8.60;;;7.20;99.90;;;;;;5032501;28;20036;-63
2021/11/04 00:12:42;;;;;;;9.20;8.20;;;7.20;99.90;;;;;;5032100;28;20067;-63
2021/11/04 00:15:08;;;;;;;8.93;8.02;;;7.20;99.90;;;;;;5013702;28;20427;-64
2021/11/04 00:17:33;;;;;;;8.70;7.80;;;7.20;99.90;;;;;;5032292;28;20033;-64
2021/11/04 00:19:59;;;;;;;12.05;7.63;;;7.30;99.90;;;;;;5031620;28;20447;-64
2021/11/04 00:22:25;;;;;;;8.73;7.40;;;7.30;99.90;;;;;;5031463;28;20179;-65
2021/11/04 00:24:51;;;;;;;7.50;6.80;;;7.20;99.90;;;;;;5063535;22;20030;-61
2021/11/04 00:27:17;;;;;;;6.97;6.15;;;7.20;99.90;;;;;;5042990;28;20040;-63
2021/11/04 00:29:42;;;;;;;7.05;6.35;;;7.20;99.90;;;;;;5051365;28;20056;-62
2021/11/04 00:32:08;;;;;;;7.50;6.30;;;7.20;99.90;;;;;;5051221;28;20500;-65
2021/11/04 00:34:34;;;;;;;8.82;6.97;;;7.10;99.90;;;;;;5050477;28;20421;-62
2021/11/04 00:36:59;;;;;;;10.32;7.28;;;7.10;99.90;;;;;;5051163;28;20027;-65
2021/11/04 00:39:25;;;;;;;11.77;6.63;;;7.20;99.90;;;;;;5051121;28;20029;-64
2021/11/04 00:41:51;;;;;;;9.73;8.35;;;7.20;99.90;;;;;;5051547;28;20087;-64
2021/11/04 00:44:17;;;;;;;13.70;10.48;;;7.20;99.90;;;;;;5050815;28;20033;-65
2021/11/04 00:46:43;;;;;;;13.57;10.95;;;7.20;99.90;;;;;;5051297;28;20059;-65
2021/11/04 00:49:09;;;;;;;17.05;11.95;;;7.20;99.90;;;;;;5051094;28;20021;-65
2021/11/04 00:51:35;;;;;;;18.48;12.25;;;7.30;99.90;;;;;;5051055;28;20021;-62
2021/11/04 00:54:00;;;;;;;15.40;10.70;;;7.20;99.90;;;;;;5050937;28;20083;-65
2021/11/04 00:56:26;;;;;;;15.20;11.50;;;7.20;99.90;;;;;;5030215;28;20072;-64
2021/11/04 00:58:52;;;;;;;15.07;12.57;;;7.20;99.90;;;;;;5031001;28;20084;-65
2021/11/04 01:01:21;;;;;;;15.88;12.90;;;7.20;99.90;;;;;;5028857;28;20029;-64
2021/11/04 01:03:47;;;;;;;15.02;11.40;;;7.10;99.90;;;;;;5030678;28;20108;-64
2021/11/04 01:06:13;;;;;;;13.27;9.77;;;7.10;99.90;;;;;;5029707;28;20455;-65
2021/11/04 01:08:39;;;;;;;12.90;9.70;;;7.20;99.90;;;;;;5029988;28;20064;-65
2021/11/04 01:11:05;;;;;;;11.00;9.45;;;7.10;99.90;;;;;;5030046;28;20025;-64
2021/11/04 01:13:31;;;;;;;20.58;13.88;;;7.10;99.90;;;;;;5033911;28;20033;-65
2021/11/04 01:15:56;;;;;;;24.70;16.48;;;7.20;99.90;;;;;;5033042;28;20033;-65
2021/11/04 01:18:22;;;;;;;22.02;14.65;;;7.20;99.90;;;;;;5033603;28;20032;-64
2021/11/04 01:20:48;;;;;;;21.05;13.93;;;7.20;99.90;;;;;;5033478;28;20030;-64
2021/11/04 01:23:13;;;;;;;28.00;17.50;;;7.30;99.90;;;;;;5033655;28;20041;-64
2021/11/04 01:25:39;;;;;;;24.40;16.80;;;7.20;99.90;;;;;;5033283;28;20033;-65
2021/11/04 01:28:08;;;;;;;24.23;14.18;;;7.20;99.90;;;;;;5034314;28;20544;-64
2021/11/04 01:30:38;;;;;;;14.20;9.80;;;7.20;99.90;;;;;;5016566;28;20045;-63
2021/11/04 01:33:04;;;;;;;10.88;8.60;;;7.20;99.90;;;;;;5034170;28;20017;-63
2021/11/04 01:35:31;;;;;;;9.35;6.25;;;7.30;99.90;;;;;;5033460;28;20026;-62
2021/11/04 01:38:01;;;;;;;7.45;6.68;;;7.20;99.90;;;;;;5034378;28;20029;-63
2021/11/04 01:40:27;;;;;;;6.05;5.45;;;7.20;99.90;;;;;;5033912;28;20022;-64
2021/11/04 01:42:53;;;;;;;6.47;5.75;;;7.40;99.90;;;;;;5034164;28;20057;-63
2021/11/04 01:45:20;;;;;;;11.63;8.43;;;7.20;99.90;;;;;;5033361;28;20648;-63
2021/11/04 01:47:46;;;;;;;8.77;7.82;;;7.30;99.90;;;;;;5034049;28;20052;-63
2021/11/04 01:50:23;;;;;;;10.75;6.95;;;7.20;99.90;;;;;;5033573;28;20021;-64
2021/11/04 01:52:49;;;;;;;9.10;7.95;;;7.20;99.90;;;;;;5033962;28;20021;-63
2021/11/04 01:55:23;;;;;;;10.38;7.05;;;7.10;99.90;;;;;;5033011;28;20022;-63
2021/11/04 01:57:50;;;;;;;10.05;7.35;;;7.10;99.90;;;;;;5034538;28;20025;-64
2021/11/04 02:00:22;;;;;;;8.98;6.30;;;7.20;99.90;;;;;;5034867;28;20030;-63
2021/11/04 02:02:59;;;;;;;6.57;5.90;;;7.10;99.90;;;;;;5034428;28;20036;-64
2021/11/04 02:05:33;;;;;;;6.00;5.00;;;7.10;99.90;;;;;;5034028;28;20057;-63
2021/11/04 02:08:08;;;;;;;6.75;5.47;;;7.10;99.90;;;;;;5033966;28;20052;-63
2021/11/04 02:10:40;;;;;;;6.00;4.10;;;7.10;99.90;;;;;;5033462;28;20567;-63
2021/11/04 02:13:23;;;;;;;4.20;3.80;;;7.10;99.90;;;;;;5015945;28;20425;-63
2021/11/04 02:15:54;;;;;;;4.25;3.15;;;7.00;99.90;;;;;;5033160;28;20034;-62
2021/11/04 02:18:23;;;;;;;3.30;3.00;;;7.10;99.90;;;;;;5033719;28;20021;-63
2021/11/04 02:20:54;;;;;;;1.73;1.58;;;7.10;99.90;;;;;;5033427;28;20021;-63
2021/11/04 02:24:08;;;;;;;1.42;1.33;;;7.00;99.90;;;;;;5032587;28;20100;-62
2021/11/04 02:26:35;;;;;;;3.08;1.05;;;7.00;99.90;;;;;;4990794;28;20509;-62
2021/11/04 02:29:02;;;;;;;0.90;0.90;;;7.10;99.90;;;;;;5024795;28;20496;-65
2021/11/04 02:31:30;;;;;;;0.68;0.68;;;7.00;99.90;;;;;;5033230;28;20104;-64
2021/11/04 02:33:56;;;;;;;2.17;0.93;;;6.90;99.90;;;;;;5032965;28;20075;-64
2021/11/04 02:36:23;;;;;;;1.20;0.77;;;7.00;99.90;;;;;;5032322;28;20389;-63
2021/11/04 02:38:49;;;;;;;0.55;0.55;;;6.90;99.90;;;;;;5032574;28;20021;-63
2021/11/04 02:41:15;;;;;;;0.30;0.30;;;7.00;99.90;;;;;;5032421;28;20027;-64
2021/11/04 02:43:41;;;;;;;0.50;0.50;;;6.90;99.90;;;;;;5033121;28;20040;-63
2021/11/04 02:46:07;;;;;;;0.40;0.40;;;6.90;99.90;;;;;;5032188;28;20025;-65
2021/11/04 02:48:34;;;;;;;0.52;0.50;;;6.90;99.90;;;;;;5032980;28;20053;-63
2021/11/04 02:51:00;;;;;;;0.30;0.30;;;6.90;99.90;;;;;;5034285;28;20033;-63
2021/11/04 02:53:28;;;;;;;0.30;0.30;;;6.80;99.90;;;;;;5035968;28;20602;-63
2021/11/04 02:55:55;;;;;;;0.28;0.28;;;6.80;99.90;;;;;;5048075;28;20021;-63
2021/11/04 02:58:21;;;;;;;0.60;0.50;;;6.70;99.90;;;;;;5053513;28;20021;-64
2021/11/04 03:00:50;;;;;;;0.40;0.40;;;6.60;99.90;;;;;;5054989;28;20394;-63
2021/11/04 03:03:16;;;;;;;0.30;0.30;;;6.70;99.90;;;;;;5055077;28;20086;-64
2021/11/04 03:05:42;;;;;;;2.17;0.52;;;6.70;99.90;;;;;;5054298;28;20036;-63
2021/11/04 03:08:08;;;;;;;0.30;0.30;;;6.60;99.90;;;;;;5053519;28;20021;-64
2021/11/04 03:10:34;;;;;;;0.40;0.40;;;6.50;99.90;;;;;;5052547;28;20474;-64
2021/11/04 03:13:00;;;;;;;1.13;0.40;;;6.60;99.90;;;;;;5053453;28;20024;-64
2021/11/04 03:15:29;;;;;;;0.45;0.45;;;6.60;99.90;;;;;;5052188;28;20584;-63
2021/11/04 03:17:56;;;;;;;1.15;0.52;;;6.50;99.90;;;;;;5052550;28;20105;-63
2021/11/04 03:20:22;;;;;;;2.60;0.60;;;6.80;99.90;;;;;;5052907;28;20449;-63
2021/11/04 03:22:48;;;;;;;1.85;0.60;;;6.60;99.90;;;;;;5053291;28;20025;-63
2021/11/04 03:25:17;;;;;;;0.70;0.70;;;6.50;99.90;;;;;;5042434;28;20037;-64
2021/11/04 03:27:46;;;;;;;0.60;0.60;;;6.60;99.90;;;;;;5033695;28;20022;-64
2021/11/04 03:30:16;;;;;;;0.95;0.95;;;6.50;99.90;;;;;;5033713;28;20041;-63
2021/11/04 03:32:42;;;;;;;0.77;0.60;;;6.40;99.90;;;;;;5034822;28;20463;-63
2021/11/04 03:35:10;;;;;;;0.80;0.80;;;6.40;99.90;;;;;;5034405;28;20665;-63
2021/11/04 03:37:43;;;;;;;0.70;0.70;;;6.40;99.90;;;;;;5037419;28;20025;-64
2021/11/04 03:40:10;;;;;;;0.95;0.95;;;6.40;99.90;;;;;;5038196;28;20025;-64
2021/11/04 03:42:38;;;;;;;0.60;0.60;;;6.40;99.90;;;;;;5032611;28;20545;-63
2021/11/04 03:45:04;;;;;;;0.60;0.60;;;6.30;99.90;;;;;;5031489;28;20021;-63
2021/11/04 03:47:31;;;;;;;0.57;0.50;;;6.40;99.90;;;;;;5032354;28;20022;-64
2021/11/04 03:49:58;;;;;;;0.70;0.70;;;6.40;99.90;;;;;;5032589;28;20040;-64
2021/11/04 03:52:24;;;;;;;0.63;0.63;;;6.30;99.90;;;;;;5034060;28;20091;-65
2021/11/04 03:54:50;;;;;;;0.70;0.70;;;6.30;99.90;;;;;;5032900;28;20029;-65
2021/11/04 03:57:18;;;;;;;0.77;0.73;;;6.30;99.90;;;;;;5033757;28;20036;-64
2021/11/04 03:59:45;;;;;;;1.48;0.75;;;6.30;99.90;;;;;;5033201;28;20026;-65
2021/11/04 04:02:11;;;;;;;0.90;0.90;;;6.20;99.90;;;;;;5033243;28;20041;-64
2021/11/04 04:04:38;;;;;;;1.02;1.02;;;6.20;99.90;;;;;;5032562;28;20033;-65
2021/11/04 04:07:05;;;;;;;0.90;0.90;;;6.20;99.90;;;;;;5033305;28;20796;-65
2021/11/04 04:09:31;;;;;;;0.90;0.90;;;5.60;99.90;;;;;;5033464;28;20123;-64
2021/11/04 04:11:56;;;;;;;1.75;1.10;;;6.20;99.90;;;;;;5034154;28;20037;-64
2021/11/04 04:14:22;;;;;;;1.00;1.00;;;6.30;99.90;;;;;;5033691;28;20182;-65
2021/11/04 04:16:48;;;;;;;1.40;1.20;;;6.10;99.90;;;;;;5034231;28;20028;-63
2021/11/04 04:19:14;;;;;;;1.10;1.10;;;6.20;99.90;;;;;;5033333;28;20422;-64
2021/11/04 04:21:40;;;;;;;1.45;1.35;;;6.10;99.90;;;;;;5033180;28;20033;-64
2021/11/04 04:24:06;;;;;;;1.10;1.10;;;6.10;99.90;;;;;;5034055;28;20033;-63
2021/11/04 04:26:32;;;;;;;1.58;1.30;;;6.30;99.90;;;;;;5033660;28;20038;-65
2021/11/04 04:28:57;;;;;;;1.55;1.50;;;6.00;99.90;;;;;;5033656;28;20022;-64
2021/11/04 04:31:23;;;;;;;1.63;1.52;;;6.10;99.90;;;;;;5033782;28;20064;-64
2021/11/04 04:33:49;;;;;;;1.98;1.88;;;6.10;99.90;;;;;;5033786;28;20025;-64
2021/11/04 04:36:14;;;;;;;1.95;1.85;;;6.00;99.90;;;;;;5032377;28;20075;-64
2021/11/04 04:38:40;;;;;;;2.25;2.15;;;6.20;99.90;;;;;;5031558;28;20097;-64
2021/11/04 04:41:06;;;;;;;2.08;1.98;;;6.20;99.90;;;;;;5031076;28;20040;-64
2021/11/04 04:43:31;;;;;;;2.08;1.95;;;6.00;99.90;;;;;;5031379;28;20026;-63
2021/11/04 04:45:57;;;;;;;2.25;2.05;;;6.00;99.90;;;;;;5030503;28;20400;-63
2021/11/04 04:48:23;;;;;;;1.92;1.83;;;5.90;99.90;;;;;;5034933;28;20031;-63
2021/11/04 04:50:48;;;;;;;2.25;2.05;;;6.00;99.90;;;;;;5035217;28;20029;-64
2021/11/04 04:53:14;;;;;;;2.22;2.13;;;6.00;99.90;;;;;;5035166;28;20105;-63
2021/11/04 04:55:40;;;;;;;2.53;2.33;;;5.90;99.90;;;;;;5033943;28;20456;-63
2021/11/04 04:58:06;;;;;;;2.47;2.30;;;6.00;99.90;;;;;;5034964;28;20034;-64
2021/11/04 05:00:33;;;;;;;2.47;2.28;;;6.00;99.90;;;;;;5035003;28;20025;-64
2021/11/04 05:02:58;;;;;;;2.30;2.17;;;6.00;99.90;;;;;;5035065;28;20057;-64
2021/11/04 05:05:24;;;;;;;2.80;2.60;;;6.00;99.90;;;;;;5034279;28;20115;-62
2021/11/04 05:07:50;;;;;;;2.20;2.10;;;5.90;99.90;;;;;;5034704;28;20029;-64
2021/11/04 05:10:16;;;;;;;2.28;2.13;;;6.00;99.90;;;;;;5034023;28;20565;-64
2021/11/04 05:12:42;;;;;;;2.20;2.10;;;6.10;99.90;;;;;;5033995;28;20030;-63
2021/11/04 05:15:08;;;;;;;4.15;2.63;;;6.00;99.90;;;;;;5033104;28;20396;-64
2021/11/04 05:17:35;;;;;;;2.10;2.00;;;6.00;99.90;;;;;;5033881;28;20030;-63
2021/11/04 05:20:04;;;;;;;2.40;2.30;;;6.20;99.90;;;;;;5033737;28;20107;-64
2021/11/04 05:22:31;;;;;;;2.60;2.40;;;6.00;99.90;;;;;;5033676;28;20048;-63
2021/11/04 05:24:57;;;;;;;2.42;2.33;;;6.00;99.90;;;;;;5032297;28;20030;-61
2021/11/04 05:27:23;;;;;;;2.80;2.60;;;6.00;99.90;;;;;;5033483;28;20030;-63
2021/11/04 05:29:49;;;;;;;2.60;2.47;;;6.00;99.90;;;;;;5030434;28;20025;-71
2021/11/04 05:32:17;;;;;;;2.50;2.30;;;5.90;99.90;;;;;;5020829;28;20060;-71
2021/11/04 05:34:43;;;;;;;2.78;2.58;;;5.90;99.90;;;;;;5032192;28;20025;-70
2021/11/04 05:37:08;;;;;;;7.93;2.75;;;6.00;99.90;;;;;;5032614;28;20091;-69
2021/11/04 05:39:38;;;;;;;4.40;2.65;;;6.20;99.90;;;;;;5033048;28;20033;-71
2021/11/04 05:42:05;;;;;;;2.80;2.60;;;6.00;99.90;;;;;;5032280;28;20064;-71
2021/11/04 05:44:32;;;;;;;2.92;2.72;;;6.00;99.90;;;;;;5032631;28;20036;-71
2021/11/04 05:46:58;;;;;;;2.85;2.65;;;6.00;99.90;;;;;;5034518;28;20021;-70
2021/11/04 05:49:23;;;;;;;2.30;2.20;;;6.00;99.90;;;;;;5040069;28;20026;-71
2021/11/04 05:51:49;;;;;;;2.60;2.40;;;6.00;99.90;;;;;;5039187;28;20025;-68
2021/11/04 05:54:15;;;;;;;2.65;2.45;;;6.00;99.90;;;;;;5034172;28;20030;-70
2021/11/04 05:56:41;;;;;;;3.00;2.80;;;6.00;99.90;;;;;;5033551;28;20394;-77
2021/11/04 05:59:06;;;;;;;4.00;3.70;;;6.00;99.90;;;;;;5032699;28;20484;-77
2021/11/04 06:01:32;;;;;;;3.78;3.47;;;6.60;99.90;;;;;;5033541;28;20028;-78
2021/11/04 06:03:58;;;;;;;3.53;3.20;;;6.50;99.90;;;;;;5033615;28;20087;-76
2021/11/04 06:06:23;;;;;;;2.92;2.72;;;6.60;99.90;;;;;;5030490;28;20107;-76
2021/11/04 06:08:49;;;;;;;3.30;3.00;;;6.50;99.90;;;;;;5013547;28;20508;-76
2021/11/04 06:11:15;;;;;;;2.50;2.30;;;6.40;99.90;;;;;;5013266;28;20049;-70
2021/11/04 06:13:40;;;;;;;4.40;2.00;;;6.40;99.90;;;;;;5028791;28;20037;-67
2021/11/04 06:16:12;;;;;;;2.30;2.15;;;6.30;99.90;;;;;;5021944;28;20500;-70
2021/11/04 06:18:38;;;;;;;2.10;2.00;;;6.40;99.90;;;;;;5013374;28;20017;-67
2021/11/04 06:21:04;;;;;;;2.00;1.90;;;6.30;99.90;;;;;;4996756;28;20100;-71
2021/11/04 06:23:30;;;;;;;3.55;2.28;;;6.20;99.90;;;;;;5014814;28;20025;-71
2021/11/04 06:25:56;;;;;;;2.28;2.08;;;6.20;99.90;;;;;;5027775;28;20045;-72
2021/11/04 06:28:21;;;;;;;1.92;1.83;;;6.30;99.90;;;;;;5033232;28;20067;-72
2021/11/04 06:30:47;;;;;;;2.47;2.17;;;6.30;99.90;;;;;;5033131;28;20021;-72
2021/11/04 06:33:12;;;;;;;2.42;2.10;;;6.30;99.90;;;;;;5049172;22;20042;-69
2021/11/04 06:35:38;;;;;;;2.55;2.35;;;6.30;99.90;;;;;;5029937;28;20383;-69
2021/11/04 06:38:04;;;;;;;2.13;2.03;;;6.30;99.90;;;;;;5032309;28;20025;-70
2021/11/04 06:40:30;;;;;;;2.05;1.85;;;6.40;99.90;;;;;;5032408;28;20041;-70
2021/11/04 06:42:55;;;;;;;2.00;1.80;;;6.30;99.90;;;;;;5032812;28;20021;-69
2021/11/04 06:45:21;;;;;;;2.10;2.00;;;6.30;99.90;;;;;;5032390;28;20518;-67
2021/11/04 06:47:50;;;;;;;1.75;1.65;;;6.40;99.90;;;;;;5032548;28;20056;-73
2021/11/04 06:50:21;;;;;;;2.00;1.90;;;6.40;99.90;;;;;;5032537;28;20537;-63
2021/11/04 06:53:07;;;;;;;2.10;2.00;;;6.40;99.90;;;;;;5032780;28;20433;-63
2021/11/04 06:55:36;;;;;;;1.80;1.70;;;6.50;99.90;;;;;;5031903;28;20022;-64
2021/11/04 06:58:04;;;;;;;1.92;1.75;;;6.30;99.90;;;;;;5032875;28;20029;-64
2021/11/04 07:00:35;;;;;;;1.73;1.63;;;6.60;99.90;;;;;;5032337;28;20049;-64
2021/11/04 07:03:23;;;;;;;8.75;7.28;;;6.40;99.90;;;;;;5045006;28;20031;-63
2021/11/04 07:05:56;;;;;;;3.45;2.00;;;6.50;99.90;;;;;;5051388;28;20032;-64
2021/11/04 07:08:26;;;;;;;;;;;6.40;99.90;;;;;;5052920;28;20021;-60
2021/11/04 07:11:00;;;;;;;1.30;1.20;;;6.40;99.90;;;;;;5051628;28;19923;-63
2021/11/04 07:13:29;;;;;;;1.40;1.30;;;6.40;99.90;;;;;;5052571;28;20024;-63
2021/11/04 07:15:59;;;;;;;1.88;1.40;;;6.40;99.90;;;;;;5051745;28;20036;-65
2021/11/04 07:18:26;;;;;;;1.40;1.10;;;6.40;99.90;;;;;;5051982;28;20021;-62
2021/11/04 07:21:11;;;;;;;1.10;1.10;;;6.40;99.90;;;;;;5052328;28;20033;-62
2021/11/04 07:23:38;;;;;;;2.05;1.20;;;6.40;99.90;;;;;;5052217;28;20021;-63
2021/11/04 07:26:06;;;;;;;1.13;1.10;;;6.40;99.90;;;;;;5051499;28;20025;-62
2021/11/04 07:28:35;;;;;;;1.25;1.15;;;6.40;99.90;;;;;;5052041;28;20101;-64
2021/11/04 07:31:01;;;;;;;0.98;0.98;;;6.40;99.90;;;;;;5052123;28;20383;-64
2021/11/04 07:33:32;;;;;;;1.30;1.20;;;6.50;99.90;;;;;;5051644;28;20025;-64
2021/11/04 07:36:02;;;;;;;1.95;1.20;;;6.50;99.90;;;;;;5051574;28;20028;-62
2021/11/04 07:38:32;;;;;;;1.48;1.38;;;6.60;99.90;;;;;;5054185;28;20035;-62
2021/11/04 07:40:58;;;;;;;1.38;1.27;;;6.60;99.90;;;;;;5053576;28;20063;-62
2021/11/04 07:43:25;;;;;;;5.40;1.20;;;6.50;99.90;;;;;;5053389;28;20033;-63
2021/11/04 07:45:50;;;;;;;1.40;1.10;;;6.50;99.90;;;;;;5051759;28;20072;-63
2021/11/04 07:48:22;;;;;;;2.85;1.55;;;6.70;99.90;;;;;;5052215;28;20243;-64
2021/11/04 07:50:49;;;;;;;0.80;0.80;;;6.90;99.90;;;;;;5052899;28;20041;-63
2021/11/04 07:53:15;;;;;;;0.80;0.80;;;6.50;99.90;;;;;;5051880;28;20025;-63
2021/11/04 07:55:41;;;;;;;3.22;0.93;;;6.80;99.90;;;;;;5051200;28;20104;-64
2021/11/04 07:58:06;;;;;;;0.95;0.90;;;6.60;99.90;;;;;;5052211;28;20029;-64
2021/11/04 08:00:32;;;;;;;0.80;0.80;;;6.70;99.90;;;;;;5051805;28;20021;-63
2021/11/04 08:02:58;;;;;;;4.22;0.70;;;6.90;99.90;;;;;;5051290;28;20078;-64
2021/11/04 08:05:24;;;;;;;0.73;0.73;;;6.70;99.90;;;;;;5051083;28;20033;-62
2021/11/04 08:07:50;;;;;;;1.23;1.00;;;6.70;99.90;;;;;;5051583;28;20021;-63
2021/11/04 08:10:17;;;;;;;1.13;0.80;;;6.60;99.90;;;;;;5051473;28;20032;-64
2021/11/04 08:12:43;;;;;;;2.30;0.65;;;6.80;99.90;;;;;;5051602;28;20021;-65
2021/11/04 08:15:10;;;;;;;0.70;0.70;;;6.60;99.90;;;;;;5050909;28;20378;-64
2021/11/04 08:17:36;;;;;;;0.73;0.60;;;6.60;99.90;;;;;;5051289;28;20483;-62
2021/11/04 08:20:04;;;;;;;0.70;0.70;;;6.60;99.90;;;;;;5051635;28;20029;-64
2021/11/04 08:22:31;;;;;;;1.08;0.77;;;6.50;99.90;;;;;;5054055;28;20029;-63
2021/11/04 08:24:57;;;;;;;0.70;0.52;;;6.50;99.90;;;;;;5055058;28;20029;-62
2021/11/04 08:27:23;;;;;;;0.80;0.80;;;6.60;99.90;;;;;;5055911;28;20404;-64
2021/11/04 08:29:48;;;;;;;1.38;0.70;;;6.50;99.90;;;;;;5055509;28;20033;-64
2021/11/04 08:32:14;;;;;;;1.38;0.60;;;6.40;99.90;;;;;;5055140;28;20025;-63
2021/11/04 08:34:40;;;;;;;1.75;0.80;;;6.50;99.90;;;;;;5055488;28;20477;-64
2021/11/04 08:37:06;;;;;;;1.15;1.10;;;6.50;99.90;;;;;;5056424;28;20105;-62
2021/11/04 08:39:32;;;;;;;0.95;0.90;;;6.60;99.90;;;;;;5056256;28;20032;-63
2021/11/04 08:41:58;;;;;;;1.10;1.00;;;6.50;99.90;;;;;;5055586;28;20036;-64
2021/11/04 08:44:24;;;;;;;1.48;1.38;;;6.60;99.90;;;;;;5054881;28;20029;-64
2021/11/04 08:46:50;;;;;;;0.68;0.60;;;6.60;99.90;;;;;;5055350;28;20028;-64
2021/11/04 08:49:16;;;;;;;1.08;0.98;;;6.60;99.90;;;;;;5055373;28;20029;-62
2021/11/04 08:51:42;;;;;;;2.85;1.70;;;6.50;99.90;;;;;;5055212;28;20021;-63
2021/11/04 08:54:08;;;;;;;0.80;0.80;;;6.50;99.90;;;;;;5055102;28;20087;-64
2021/11/04 08:56:35;;;;;;;0.70;0.70;;;6.60;99.90;;;;;;5054437;28;20025;-65
2021/11/04 08:59:02;;;;;;;3.05;1.40;;;6.60;99.90;;;;;;5055088;28;20067;-64
2021/11/04 09:01:29;;;;;;;0.60;0.60;;;6.60;99.90;;;;;;5054651;28;20029;-65
2021/11/04 09:03:54;;;;;;;2.13;0.90;;;6.60;99.90;;;;;;5054500;28;20035;-64
2021/11/04 09:06:20;;;;;;;3.65;1.40;;;6.50;99.90;;;;;;5053973;28;20112;-64
2021/11/04 09:08:46;;;;;;;2.40;1.30;;;6.60;99.90;;;;;;5054676;28;20017;-64
2021/11/04 09:11:12;;;;;;;4.85;1.77;;;6.70;99.90;;;;;;5054500;28;20615;-63
2021/11/04 09:13:38;;;;;;;3.63;1.00;;;6.70;99.90;;;;;;5054477;28;20033;-64
2021/11/04 09:16:04;;;;;;;1.42;1.20;;;6.60;99.90;;;;;;5053940;28;20095;-63
2021/11/04 09:18:29;;;;;;;2.72;0.82;;;6.60;99.90;;;;;;5054359;28;20100;-62
2021/11/04 09:20:55;;;;;;;2.10;1.00;;;6.70;99.90;;;;;;5054575;28;20638;-62
2021/11/04 09:23:21;;;;;;;1.77;1.20;;;6.80;99.90;;;;;;5054209;28;20025;-63
2021/11/04 09:25:46;;;;;;;1.42;0.82;;;6.80;99.90;;;;;;5053701;28;20387;-63
2021/11/04 09:28:12;;;;;;;0.60;0.60;;;6.80;99.90;;;;;;5054305;28;20033;-64
2021/11/04 09:30:38;;;;;;;0.68;0.60;;;6.90;99.90;;;;;;5054008;28;20036;-63
2021/11/04 09:33:04;;;;;;;1.55;0.63;;;7.00;99.90;;;;;;5053608;28;20024;-64
2021/11/04 09:35:29;;;;;;;0.50;0.50;;;7.00;99.90;;;;;;5053535;28;20513;-64
2021/11/04 09:37:55;;;;;;;0.65;0.60;;;7.00;99.90;;;;;;5054050;28;20024;-64
2021/11/04 09:40:21;;;;;;;2.35;0.80;;;7.00;99.90;;;;;;5053997;28;20109;-64
2021/11/04 09:42:50;;;;;;;1.40;0.45;;;7.00;99.90;;;;;;5053929;28;20558;-63
2021/11/04 09:45:16;;;;;;;1.02;0.40;;;7.00;99.90;;;;;;5053498;28;20060;-63
2021/11/04 09:47:42;;;;;;;2.95;0.50;;;6.90;99.90;;;;;;5053592;28;20661;-64
2021/11/04 09:50:15;;;;;;;0.57;0.57;;;6.80;99.90;;;;;;5053945;28;20040;-63
2021/11/04 09:52:42;;;;;;;1.20;0.50;;;6.70;99.90;;;;;;5053908;28;20055;-63
2021/11/04 09:55:28;;;;;;;0.60;0.60;;;6.70;99.90;;;;;;5053364;28;20025;-64
2021/11/04 09:58:00;;;;;;;1.58;0.40;;;6.80;99.90;;;;;;5054151;28;20044;-64
2021/11/04 10:00:40;;;;;;;0.50;0.40;;;6.90;99.90;;;;;;5054131;28;20111;-64
2021/11/04 10:03:14;;;;;;;0.52;0.52;;;6.70;99.90;;;;;;5053291;28;20100;-63
2021/11/04 10:05:50;;;;;;;1.17;0.38;;;6.90;99.90;;;;;;5053143;28;20021;-64
2021/11/04 10:08:33;;;;;;;2.08;0.50;;;6.90;99.90;;;;;;5053523;28;20105;-65
2021/11/04 10:11:10;;;;;;;3.65;0.60;;;6.90;99.90;;;;;;5053672;28;20059;-64
2021/11/04 10:13:37;;;;;;;0.30;0.30;;;7.10;99.90;;;;;;5053600;28;20052;-62
2021/11/04 10:16:03;;;;;;;1.55;0.50;;;7.10;99.90;;;;;;5053068;28;20469;-62
2021/11/04 10:18:39;;;;;;;3.55;0.65;;;7.20;99.90;;;;;;5053216;28;20025;-64
2021/11/04 10:21:05;;;;;;;3.28;0.70;;;7.10;99.90;;;;;;5053827;28;20056;-63
2021/11/04 10:23:43;;;;;;;1.92;0.60;;;7.10;99.90;;;;;;5053444;28;20025;-62
2021/11/04 10:26:18;;;;;;;3.20;0.50;;;7.10;99.90;;;;;;5053214;28;20055;-63
2021/11/04 10:28:47;;;;;;;1.23;0.70;;;7.10;99.90;;;;;;5053298;28;20032;-64
2021/11/04 10:31:14;;;;;;;0.60;0.60;;;7.10;99.90;;;;;;5053461;28;20017;-62
2021/11/04 10:33:45;;;;;;;0.35;0.35;;;7.10;99.90;;;;;;5052960;28;20040;-63
2021/11/04 10:36:16;;;;;;;0.50;0.50;;;7.10;99.90;;;;;;5052433;28;20017;-63
2021/11/04 10:38:49;;;;;;;0.47;0.43;;;7.20;99.90;;;;;;5053247;28;20544;-63
2021/11/04 10:41:20;;;;;;;;;;;7.00;99.90;;;;;;5053651;28;20059;-64
2021/11/04 10:43:48;;;;;;;0.95;0.70;;;6.90;99.90;;;;;;5053635;28;19911;-62
2021/11/04 10:46:16;;;;;;;0.82;0.70;;;6.90;99.90;;;;;;5052412;28;20032;-64
2021/11/04 10:48:46;;;;;;;0.60;0.60;;;7.00;99.90;;;;;;5052846;28;20383;-63
2021/11/04 10:51:17;;;;;;;0.65;0.63;;;7.00;99.90;;;;;;5052867;28;20112;-63
2021/11/04 10:53:43;;;;;;;0.70;0.70;;;7.10;99.90;;;;;;5052869;28;20492;-63
2021/11/04 10:56:08;;;;;;;1.40;0.65;;;7.20;99.90;;;;;;5052145;28;20338;-64
2021/11/04 10:58:34;;;;;;;0.90;0.90;;;7.20;99.90;;;;;;5053712;28;20017;-62
2021/11/04 11:01:00;;;;;;;0.80;0.80;;;7.30;99.90;;;;;;5053462;28;20659;-61
2021/11/04 11:03:28;;;;;;;0.90;0.70;;;7.20;99.90;;;;;;5052941;28;20577;-64
2021/11/04 11:05:59;;;;;;;0.70;0.68;;;7.20;99.90;;;;;;5054762;28;20044;-64
2021/11/04 11:08:28;;;;;;;2.35;0.90;;;7.20;99.90;;;;;;5060070;28;20044;-64
2021/11/04 11:10:54;;;;;;;0.80;0.80;;;7.30;99.90;;;;;;5061913;28;20021;-65
2021/11/04 11:13:20;;;;;;;3.05;1.10;;;7.20;99.90;;;;;;5062625;28;20434;-64
2021/11/04 11:15:53;;;;;;;3.47;1.45;;;7.10;99.90;;;;;;5062296;28;20017;-64
2021/11/04 11:18:25;;;;;;;1.95;1.85;;;7.20;99.90;;;;;;5055483;28;20028;-64
2021/11/04 11:20:53;;;;;;;5.05;4.65;;;7.20;99.90;;;;;;5053059;28;20052;-63
2021/11/04 11:23:21;;;;;;;3.25;3.05;;;7.10;99.90;;;;;;5053342;28;20041;-62
2021/11/04 11:25:56;;;;;;;3.17;2.38;;;7.00;99.90;;;;;;5051693;28;20580;-61
2021/11/04 11:28:28;;;;;;;4.25;3.50;;;7.10;99.90;;;;;;5051793;28;20395;-63
2021/11/04 11:31:09;;;;;;;5.97;4.22;;;7.10;99.90;;;;;;5052047;28;20505;-63
2021/11/04 11:34:11;;;;;;;11.60;7.22;;;7.20;99.90;;;;;;5052015;28;20128;-62
2021/11/04 11:36:39;;;;;;;15.25;6.38;;;7.20;99.90;;;;;;4989624;28;20056;-63
2021/11/04 11:39:10;;;;;;;4.07;3.10;;;7.30;99.90;;;;;;5040264;28;20553;-64
2021/11/04 11:41:51;;;;;;;3.63;3.15;;;7.30;99.90;;;;;;5051869;28;20035;-63
2021/11/04 11:44:33;;;;;;;2.80;2.60;;;7.30;99.90;;;;;;5051273;28;20539;-64
2021/11/04 11:47:06;;;;;;;3.25;2.70;;;7.40;99.90;;;;;;5052022;28;20028;-63
2021/11/04 11:49:38;;;;;;;2.17;2.00;;;7.50;99.90;;;;;;5051566;28;20060;-63
2021/11/04 11:52:06;;;;;;;3.13;2.80;;;7.50;99.90;;;;;;5051628;28;20021;-63
2021/11/04 11:54:52;;;;;;;2.28;2.08;;;7.50;99.90;;;;;;5051121;28;20037;-62
2021/11/04 11:57:18;;;;;;;2.50;2.30;;;7.40;99.90;;;;;;5051179;28;20108;-63
2021/11/04 11:59:50;;;;;;;3.33;2.22;;;7.40;99.90;;;;;;5051757;28;20036;-63
2021/11/04 12:02:37;;;;;;;2.67;1.92;;;7.50;99.90;;;;;;5051705;28;20507;-63
2021/11/04 12:05:21;;;;;;;8.73;5.57;;;7.60;99.90;;;;;;5051152;28;20491;-64
2021/11/04 12:07:50;;;;;;;4.78;3.50;;;7.60;99.90;;;;;;5051751;28;20035;-63
2021/11/04 12:10:39;;;;;;;3.55;3.25;;;7.60;99.90;;;;;;5051604;28;20032;-62
2021/11/04 12:13:05;;;;;;;3.67;3.00;;;7.70;99.90;;;;;;5043754;28;20471;-64
2021/11/04 12:15:31;;;;;;;10.07;4.18;;;7.80;99.90;;;;;;5051067;28;20035;-62
2021/11/04 12:18:15;;;;;;;4.00;2.33;;;7.90;99.90;;;;;;5051097;28;20033;-64
2021/11/04 12:21:07;;;;;;;8.95;3.60;;;7.80;99.90;;;;;;5051478;28;20100;-62
2021/11/04 12:23:36;;;;;;;3.42;2.83;;;7.80;99.90;;;;;;5048267;28;20515;-62
2021/11/04 12:26:06;;;;;;;3.58;3.28;;;8.00;99.90;;;;;;5050746;28;20079;-60
2021/11/04 12:28:49;;;;;;;15.32;4.03;;;8.00;99.90;;;;;;5051390;28;20474;-64
2021/11/04 12:31:24;;;;;;;3.60;3.30;;;8.10;99.90;;;;;;5051053;28;20039;-62
2021/11/04 12:33:57;;;;;;;3.25;2.97;;;8.30;99.90;;;;;;5072266;22;20041;-63
2021/11/04 12:36:43;;;;;;;3.63;3.33;;;8.30;99.90;;;;;;5046444;28;20123;-65
2021/11/04 12:39:28;;;;;;;3.97;3.53;;;8.40;99.90;;;;;;5051615;28;20029;-64
2021/11/04 12:41:57;;;;;;;4.05;3.65;;;8.30;99.90;;;;;;5051058;28;20029;-63
2021/11/04 12:44:27;;;;;;;4.45;4.05;;;8.30;99.90;;;;;;5050791;28;20487;-63
2021/11/04 12:46:54;;;;;;;5.68;4.88;;;8.30;99.90;;;;;;5051352;28;20029;-65
2021/11/04 12:49:31;;;;;;;7.82;5.85;;;8.40;99.90;;;;;;5051693;28;20029;-64
2021/11/04 12:51:59;;;;;;;4.50;4.20;;;8.40;99.90;;;;;;5051504;28;20467;-64
2021/11/04 12:54:40;;;;;;;4.70;4.30;;;8.60;99.90;;;;;;5050716;28;20049;-65
2021/11/04 12:57:11;;;;;;;5.00;4.60;;;8.50;99.90;;;;;;5051301;28;20018;-66
2021/11/04 12:59:48;;;;;;;5.40;4.90;;;8.40;99.90;;;;;;5051280;28;20079;-65
2021/11/04 13:02:32;;;;;;;6.70;5.22;;;8.50;99.90;;;;;;5050978;28;20044;-65